sensor_id;sensor_type;location;lat;lon;timestamp;P1;durP1;ratioP1;P2;durP2;ratioP2
14470;SDS011;7321;50.802;4.336;2022-09-12T00:01:02;8.80;;;7.90;;
14470;SDS011;7321;50.802;4.336;2022-09-12T00:03:33;8.50;;;7.68;;
14470;SDS011;7321;50.802;4.336;2022-09-12T00:05:59;8.73;;;8.02;;
14470;SDS011;7321;50.802;4.336;2022-09-12T00:08:25;8.85;;;8.00;;
14470;SDS011;7321;50.802;4.336;2022-09-12T00:10:51;8.70;;;7.90;;
14470;SDS011;7321;50.802;4.336;2022-09-12T00:13:16;8.88;;;7.97;;
14470;SDS011;7321;50.802;4.336;2022-09-12T00:15:43;8.73;;;7.90;;
14470;SDS011;7321;50.802;4.336;2022-09-12T00:18:11;8.65;;;7.75;;
14470;SDS011;7321;50.802;4.336;2022-09-12T00:20:42;9.30;;;7.60;;
14470;SDS011;7321;50.802;4.336;2022-09-12T00:23:10;8.75;;;7.95;;
14470;SDS011;7321;50.802;4.336;2022-09-12T00:25:42;10.80;;;7.88;;
14470;SDS011;7321;50.802;4.336;2022-09-12T00:28:10;8.77;;;7.90;;
14470;SDS011;7321;50.802;4.336;2022-09-12T00:30:40;8.82;;;7.93;;
14470;SDS011;7321;50.802;4.336;2022-09-12T00:33:07;8.52;;;7.72;;
14470;SDS011;7321;50.802;4.336;2022-09-12T00:35:33;10.60;;;7.72;;
14470;SDS011;7321;50.802;4.336;2022-09-12T00:37:59;9.93;;;7.97;;
14470;SDS011;7321;50.802;4.336;2022-09-12T00:40:24;9.13;;;8.23;;
14470;SDS011;7321;50.802;4.336;2022-09-12T00:42:52;9.55;;;8.23;;
14470;SDS011;7321;50.802;4.336;2022-09-12T00:45:19;8.85;;;7.90;;
14470;SDS011;7321;50.802;4.336;2022-09-12T00:47:51;9.02;;;8.13;;
14470;SDS011;7321;50.802;4.336;2022-09-12T00:50:18;8.73;;;7.93;;
14470;SDS011;7321;50.802;4.336;2022-09-12T00:55:19;8.07;;;7.28;;
14470;SDS011;7321;50.802;4.336;2022-09-12T00:57:49;8.57;;;7.88;;
14470;SDS011;7321;50.802;4.336;2022-09-12T01:00:26;8.13;;;7.25;;
14470;SDS011;7321;50.802;4.336;2022-09-12T01:02:57;7.75;;;7.05;;
14470;SDS011;7321;50.802;4.336;2022-09-12T01:05:26;8.43;;;7.72;;
14470;SDS011;7321;50.802;4.336;2022-09-12T01:07:53;8.75;;;7.35;;
14470;SDS011;7321;50.802;4.336;2022-09-12T01:10:21;9.95;;;8.70;;
14470;SDS011;7321;50.802;4.336;2022-09-12T01:12:48;8.98;;;7.35;;
14470;SDS011;7321;50.802;4.336;2022-09-12T01:15:14;9.13;;;8.23;;
14470;SDS011;7321;50.802;4.336;2022-09-12T01:20:28;8.70;;;7.68;;
14470;SDS011;7321;50.802;4.336;2022-09-12T01:23:22;8.73;;;7.97;;
14470;SDS011;7321;50.802;4.336;2022-09-12T01:26:21;9.18;;;8.23;;
14470;SDS011;7321;50.802;4.336;2022-09-12T01:40:02;8.88;;;7.95;;
14470;SDS011;7321;50.802;4.336;2022-09-12T01:42:40;9.30;;;7.65;;
14470;SDS011;7321;50.802;4.336;2022-09-12T01:45:19;9.32;;;7.50;;
14470;SDS011;7321;50.802;4.336;2022-09-12T01:47:54;9.63;;;7.85;;
14470;SDS011;7321;50.802;4.336;2022-09-12T01:50:29;8.77;;;7.93;;
14470;SDS011;7321;50.802;4.336;2022-09-12T01:53:06;8.68;;;7.88;;
14470;SDS011;7321;50.802;4.336;2022-09-12T01:55:41;8.45;;;7.70;;
14470;SDS011;7321;50.802;4.336;2022-09-12T01:58:26;9.50;;;7.85;;
14470;SDS011;7321;50.802;4.336;2022-09-12T02:03:35;8.75;;;7.80;;
14470;SDS011;7321;50.802;4.336;2022-09-12T02:06:11;8.82;;;7.93;;
14470;SDS011;7321;50.802;4.336;2022-09-12T02:08:44;8.52;;;7.65;;
14470;SDS011;7321;50.802;4.336;2022-09-12T02:11:13;9.40;;;8.32;;
14470;SDS011;7321;50.802;4.336;2022-09-12T02:13:41;8.90;;;8.00;;
14470;SDS011;7321;50.802;4.336;2022-09-12T02:16:11;9.27;;;8.23;;
14470;SDS011;7321;50.802;4.336;2022-09-12T02:18:54;10.20;;;8.63;;
14470;SDS011;7321;50.802;4.336;2022-09-12T02:21:23;8.93;;;8.13;;
14470;SDS011;7321;50.802;4.336;2022-09-12T02:23:56;9.20;;;8.27;;
14470;SDS011;7321;50.802;4.336;2022-09-12T02:26:38;8.68;;;7.85;;
14470;SDS011;7321;50.802;4.336;2022-09-12T02:29:09;9.00;;;8.20;;
14470;SDS011;7321;50.802;4.336;2022-09-12T02:34:21;9.48;;;8.57;;
14470;SDS011;7321;50.802;4.336;2022-09-12T02:39:43;9.63;;;8.63;;
14470;SDS011;7321;50.802;4.336;2022-09-12T02:42:09;9.93;;;9.02;;
14470;SDS011;7321;50.802;4.336;2022-09-12T02:44:35;10.30;;;8.53;;
14470;SDS011;7321;50.802;4.336;2022-09-12T02:47:03;10.52;;;9.43;;
14470;SDS011;7321;50.802;4.336;2022-09-12T02:49:33;10.77;;;9.73;;
14470;SDS011;7321;50.802;4.336;2022-09-12T02:51:59;10.98;;;9.93;;
14470;SDS011;7321;50.802;4.336;2022-09-12T02:54:26;11.10;;;9.38;;
14470;SDS011;7321;50.802;4.336;2022-09-12T02:56:52;11.77;;;9.20;;
14470;SDS011;7321;50.802;4.336;2022-09-12T02:59:18;10.95;;;9.93;;
14470;SDS011;7321;50.802;4.336;2022-09-12T03:10:06;8.67;;;7.87;;
14470;SDS011;7321;50.802;4.336;2022-09-12T03:26:51;9.67;;;8.70;;
14470;SDS011;7321;50.802;4.336;2022-09-12T03:29:02;8.88;;;8.07;;
14470;SDS011;7321;50.802;4.336;2022-09-12T03:31:30;10.07;;;8.40;;
14470;SDS011;7321;50.802;4.336;2022-09-12T03:33:58;9.77;;;8.77;;
14470;SDS011;7321;50.802;4.336;2022-09-12T03:36:26;12.68;;;8.80;;
14470;SDS011;7321;50.802;4.336;2022-09-12T03:38:53;9.75;;;8.75;;
14470;SDS011;7321;50.802;4.336;2022-09-12T03:41:19;9.57;;;8.68;;
14470;SDS011;7321;50.802;4.336;2022-09-12T03:43:45;9.00;;;8.20;;
14470;SDS011;7321;50.802;4.336;2022-09-12T03:46:11;9.82;;;8.93;;
14470;SDS011;7321;50.802;4.336;2022-09-12T03:48:38;9.00;;;8.13;;
14470;SDS011;7321;50.802;4.336;2022-09-12T03:51:06;9.43;;;8.10;;
14470;SDS011;7321;50.802;4.336;2022-09-12T03:53:34;10.05;;;9.05;;
14470;SDS011;7321;50.802;4.336;2022-09-12T03:56:04;9.38;;;8.55;;
14470;SDS011;7321;50.802;4.336;2022-09-12T03:58:31;9.73;;;8.73;;
14470;SDS011;7321;50.802;4.336;2022-09-12T04:00:57;12.63;;;9.27;;
14470;SDS011;7321;50.802;4.336;2022-09-12T04:03:23;12.88;;;9.25;;
14470;SDS011;7321;50.802;4.336;2022-09-12T04:05:49;11.18;;;9.65;;
14470;SDS011;7321;50.802;4.336;2022-09-12T04:08:15;10.50;;;9.43;;
14470;SDS011;7321;50.802;4.336;2022-09-12T04:10:40;11.38;;;9.18;;
14470;SDS011;7321;50.802;4.336;2022-09-12T04:13:06;9.93;;;8.88;;
14470;SDS011;7321;50.802;4.336;2022-09-12T04:15:32;9.38;;;8.48;;
14470;SDS011;7321;50.802;4.336;2022-09-12T04:17:58;10.25;;;9.20;;
14470;SDS011;7321;50.802;4.336;2022-09-12T04:20:24;12.07;;;9.40;;
14470;SDS011;7321;50.802;4.336;2022-09-12T04:22:49;12.10;;;10.10;;
14470;SDS011;7321;50.802;4.336;2022-09-12T04:25:15;12.02;;;10.73;;
14470;SDS011;7321;50.802;4.336;2022-09-12T04:27:41;11.70;;;10.50;;
14470;SDS011;7321;50.802;4.336;2022-09-12T04:30:07;12.25;;;10.93;;
14470;SDS011;7321;50.802;4.336;2022-09-12T04:32:33;14.55;;;11.30;;
14470;SDS011;7321;50.802;4.336;2022-09-12T04:34:59;12.85;;;11.38;;
14470;SDS011;7321;50.802;4.336;2022-09-12T04:37:25;16.02;;;10.70;;
14470;SDS011;7321;50.802;4.336;2022-09-12T04:39:51;15.10;;;11.73;;
14470;SDS011;7321;50.802;4.336;2022-09-12T04:42:21;14.77;;;12.25;;
14470;SDS011;7321;50.802;4.336;2022-09-12T04:44:47;14.32;;;12.35;;
14470;SDS011;7321;50.802;4.336;2022-09-12T04:47:13;14.73;;;12.27;;
14470;SDS011;7321;50.802;4.336;2022-09-12T04:49:39;12.77;;;11.47;;
14470;SDS011;7321;50.802;4.336;2022-09-12T04:52:05;15.83;;;11.73;;
14470;SDS011;7321;50.802;4.336;2022-09-12T04:54:32;14.95;;;11.52;;
14470;SDS011;7321;50.802;4.336;2022-09-12T04:56:58;14.50;;;11.35;;
14470;SDS011;7321;50.802;4.336;2022-09-12T04:59:24;18.35;;;15.35;;
14470;SDS011;7321;50.802;4.336;2022-09-12T05:01:50;12.53;;;11.23;;
14470;SDS011;7321;50.802;4.336;2022-09-12T05:04:16;13.53;;;11.63;;
14470;SDS011;7321;50.802;4.336;2022-09-12T05:06:42;16.20;;;11.82;;
14470;SDS011;7321;50.802;4.336;2022-09-12T05:09:10;13.57;;;12.23;;
14470;SDS011;7321;50.802;4.336;2022-09-12T05:11:37;12.23;;;10.93;;
14470;SDS011;7321;50.802;4.336;2022-09-12T05:14:04;18.33;;;12.07;;
14470;SDS011;7321;50.802;4.336;2022-09-12T05:16:30;12.80;;;11.50;;
14470;SDS011;7321;50.802;4.336;2022-09-12T05:18:57;12.43;;;11.10;;
14470;SDS011;7321;50.802;4.336;2022-09-12T05:21:23;14.20;;;11.77;;
14470;SDS011;7321;50.802;4.336;2022-09-12T05:23:54;12.83;;;11.47;;
14470;SDS011;7321;50.802;4.336;2022-09-12T05:26:21;12.35;;;10.23;;
14470;SDS011;7321;50.802;4.336;2022-09-12T05:28:48;14.82;;;11.73;;
14470;SDS011;7321;50.802;4.336;2022-09-12T05:31:16;13.35;;;11.35;;
14470;SDS011;7321;50.802;4.336;2022-09-12T05:33:44;12.80;;;11.45;;
14470;SDS011;7321;50.802;4.336;2022-09-12T05:36:12;13.30;;;11.80;;
14470;SDS011;7321;50.802;4.336;2022-09-12T05:38:44;14.93;;;11.23;;
14470;SDS011;7321;50.802;4.336;2022-09-12T05:41:11;13.10;;;11.13;;
14470;SDS011;7321;50.802;4.336;2022-09-12T05:43:38;13.93;;;11.82;;
14470;SDS011;7321;50.802;4.336;2022-09-12T05:46:10;17.63;;;12.93;;
14470;SDS011;7321;50.802;4.336;2022-09-12T05:48:42;15.07;;;12.80;;
14470;SDS011;7321;50.802;4.336;2022-09-12T05:51:09;14.13;;;12.07;;
14470;SDS011;7321;50.802;4.336;2022-09-12T05:53:47;18.03;;;13.50;;
14470;SDS011;7321;50.802;4.336;2022-09-12T05:56:18;15.20;;;12.90;;
14470;SDS011;7321;50.802;4.336;2022-09-12T05:58:47;15.35;;;12.95;;
14470;SDS011;7321;50.802;4.336;2022-09-12T06:01:18;15.80;;;12.25;;
14470;SDS011;7321;50.802;4.336;2022-09-12T06:03:45;15.13;;;13.38;;
14470;SDS011;7321;50.802;4.336;2022-09-12T06:06:16;14.13;;;12.60;;
14470;SDS011;7321;50.802;4.336;2022-09-12T06:08:47;14.63;;;12.70;;
14470;SDS011;7321;50.802;4.336;2022-09-12T06:11:16;14.15;;;12.73;;
14470;SDS011;7321;50.802;4.336;2022-09-12T06:13:43;13.57;;;11.60;;
14470;SDS011;7321;50.802;4.336;2022-09-12T06:16:13;12.52;;;11.32;;
14470;SDS011;7321;50.802;4.336;2022-09-12T06:18:56;15.52;;;12.50;;
14470;SDS011;7321;50.802;4.336;2022-09-12T06:21:47;12.40;;;11.10;;
14470;SDS011;7321;50.802;4.336;2022-09-12T06:24:14;15.75;;;11.23;;
14470;SDS011;7321;50.802;4.336;2022-09-12T06:26:41;16.55;;;12.48;;
14470;SDS011;7321;50.802;4.336;2022-09-12T06:29:08;13.40;;;10.60;;
14470;SDS011;7321;50.802;4.336;2022-09-12T06:31:35;16.65;;;11.25;;
14470;SDS011;7321;50.802;4.336;2022-09-12T06:34:06;15.50;;;11.30;;
14470;SDS011;7321;50.802;4.336;2022-09-12T06:36:38;12.40;;;10.32;;
14470;SDS011;7321;50.802;4.336;2022-09-12T06:39:06;11.65;;;9.60;;
14470;SDS011;7321;50.802;4.336;2022-09-12T06:41:35;12.52;;;8.82;;
14470;SDS011;7321;50.802;4.336;2022-09-12T06:44:01;11.02;;;8.70;;
14470;SDS011;7321;50.802;4.336;2022-09-12T06:46:27;9.02;;;8.13;;
14470;SDS011;7321;50.802;4.336;2022-09-12T06:48:55;10.23;;;8.23;;
14470;SDS011;7321;50.802;4.336;2022-09-12T06:51:21;9.95;;;7.55;;
14470;SDS011;7321;50.802;4.336;2022-09-12T06:53:47;9.20;;;7.70;;
14470;SDS011;7321;50.802;4.336;2022-09-12T06:56:14;10.50;;;7.95;;
14470;SDS011;7321;50.802;4.336;2022-09-12T06:58:46;8.40;;;6.85;;
14470;SDS011;7321;50.802;4.336;2022-09-12T07:03:45;7.72;;;6.93;;
14470;SDS011;7321;50.802;4.336;2022-09-12T07:06:16;8.60;;;7.57;;
14470;SDS011;7321;50.802;4.336;2022-09-12T07:08:45;8.30;;;7.43;;
14470;SDS011;7321;50.802;4.336;2022-09-12T07:11:13;8.30;;;6.72;;
14470;SDS011;7321;50.802;4.336;2022-09-12T07:13:41;9.07;;;7.10;;
14470;SDS011;7321;50.802;4.336;2022-09-12T07:16:08;7.68;;;6.82;;
14470;SDS011;7321;50.802;4.336;2022-09-12T07:18:38;7.93;;;7.10;;
14470;SDS011;7321;50.802;4.336;2022-09-12T07:21:05;7.95;;;7.15;;
14470;SDS011;7321;50.802;4.336;2022-09-12T07:23:34;8.63;;;7.43;;
14470;SDS011;7321;50.802;4.336;2022-09-12T07:26:00;8.50;;;7.53;;
14470;SDS011;7321;50.802;4.336;2022-09-12T07:28:27;7.15;;;6.53;;
14470;SDS011;7321;50.802;4.336;2022-09-12T07:30:55;7.75;;;6.78;;
14470;SDS011;7321;50.802;4.336;2022-09-12T07:33:22;7.47;;;6.78;;
14470;SDS011;7321;50.802;4.336;2022-09-12T07:35:50;6.88;;;6.25;;
14470;SDS011;7321;50.802;4.336;2022-09-12T07:38:22;8.13;;;6.90;;
14470;SDS011;7321;50.802;4.336;2022-09-12T07:40:48;8.43;;;6.75;;
14470;SDS011;7321;50.802;4.336;2022-09-12T07:43:14;7.35;;;6.65;;
14470;SDS011;7321;50.802;4.336;2022-09-12T07:45:40;7.50;;;6.80;;
14470;SDS011;7321;50.802;4.336;2022-09-12T07:48:07;7.13;;;6.43;;
14470;SDS011;7321;50.802;4.336;2022-09-12T07:50:33;9.77;;;6.88;;
14470;SDS011;7321;50.802;4.336;2022-09-12T07:53:01;8.48;;;6.82;;
14470;SDS011;7321;50.802;4.336;2022-09-12T07:55:30;6.82;;;6.18;;
14470;SDS011;7321;50.802;4.336;2022-09-12T07:57:56;10.15;;;6.38;;
14470;SDS011;7321;50.802;4.336;2022-09-12T08:00:23;11.82;;;6.97;;
14470;SDS011;7321;50.802;4.336;2022-09-12T08:02:52;7.13;;;6.40;;
14470;SDS011;7321;50.802;4.336;2022-09-12T08:05:19;7.50;;;6.40;;
14470;SDS011;7321;50.802;4.336;2022-09-12T08:07:45;7.50;;;5.80;;
14470;SDS011;7321;50.802;4.336;2022-09-12T08:10:11;7.38;;;6.68;;
14470;SDS011;7321;50.802;4.336;2022-09-12T08:12:37;7.95;;;6.55;;
14470;SDS011;7321;50.802;4.336;2022-09-12T08:15:03;8.05;;;6.07;;
14470;SDS011;7321;50.802;4.336;2022-09-12T08:17:29;6.82;;;5.20;;
14470;SDS011;7321;50.802;4.336;2022-09-12T08:19:55;6.38;;;5.55;;
14470;SDS011;7321;50.802;4.336;2022-09-12T08:22:21;6.05;;;5.07;;
14470;SDS011;7321;50.802;4.336;2022-09-12T08:24:48;7.00;;;5.20;;
14470;SDS011;7321;50.802;4.336;2022-09-12T08:27:14;6.60;;;4.97;;
14470;SDS011;7321;50.802;4.336;2022-09-12T08:29:40;5.85;;;4.60;;
14470;SDS011;7321;50.802;4.336;2022-09-12T08:32:06;5.05;;;4.65;;
14470;SDS011;7321;50.802;4.336;2022-09-12T08:34:32;5.47;;;4.72;;
14470;SDS011;7321;50.802;4.336;2022-09-12T08:36:57;5.15;;;4.40;;
14470;SDS011;7321;50.802;4.336;2022-09-12T08:39:23;5.47;;;4.93;;
14470;SDS011;7321;50.802;4.336;2022-09-12T08:42:02;4.78;;;4.13;;
14470;SDS011;7321;50.802;4.336;2022-09-12T08:50:18;4.63;;;4.22;;
14470;SDS011;7321;50.802;4.336;2022-09-12T08:52:48;5.00;;;4.50;;
14470;SDS011;7321;50.802;4.336;2022-09-12T08:55:42;7.65;;;4.72;;
14470;SDS011;7321;50.802;4.336;2022-09-12T08:58:21;5.13;;;4.35;;
14470;SDS011;7321;50.802;4.336;2022-09-12T09:06:13;8.35;;;4.50;;
14470;SDS011;7321;50.802;4.336;2022-09-12T09:09:02;6.60;;;4.47;;
14470;SDS011;7321;50.802;4.336;2022-09-12T09:14:36;6.95;;;4.60;;
14470;SDS011;7321;50.802;4.336;2022-09-12T09:17:38;7.15;;;4.10;;
14470;SDS011;7321;50.802;4.336;2022-09-12T09:20:14;5.80;;;4.57;;
14470;SDS011;7321;50.802;4.336;2022-09-12T09:22:50;7.72;;;4.32;;
14470;SDS011;7321;50.802;4.336;2022-09-12T09:25:20;9.65;;;5.00;;
14470;SDS011;7321;50.802;4.336;2022-09-12T09:27:59;5.95;;;4.45;;
14470;SDS011;7321;50.802;4.336;2022-09-12T09:30:28;4.55;;;4.15;;
14470;SDS011;7321;50.802;4.336;2022-09-12T09:32:55;4.40;;;3.90;;
14470;SDS011;7321;50.802;4.336;2022-09-12T09:38:24;5.28;;;4.20;;
14470;SDS011;7321;50.802;4.336;2022-09-12T09:43:43;7.18;;;3.55;;
14470;SDS011;7321;50.802;4.336;2022-09-12T09:46:09;5.65;;;3.88;;
14470;SDS011;7321;50.802;4.336;2022-09-12T09:48:36;4.82;;;3.88;;
14470;SDS011;7321;50.802;4.336;2022-09-12T09:51:06;5.47;;;3.78;;
14470;SDS011;7321;50.802;4.336;2022-09-12T09:56:31;6.95;;;4.05;;
14470;SDS011;7321;50.802;4.336;2022-09-12T09:59:15;4.55;;;3.45;;
14470;SDS011;7321;50.802;4.336;2022-09-12T10:01:50;5.60;;;3.65;;
14470;SDS011;7321;50.802;4.336;2022-09-12T10:04:25;6.45;;;4.00;;
14470;SDS011;7321;50.802;4.336;2022-09-12T10:06:58;4.18;;;3.67;;
14470;SDS011;7321;50.802;4.336;2022-09-12T10:09:26;4.32;;;3.20;;
14470;SDS011;7321;50.802;4.336;2022-09-12T10:11:54;3.97;;;3.05;;
14470;SDS011;7321;50.802;4.336;2022-09-12T10:14:37;6.50;;;2.90;;
14470;SDS011;7321;50.802;4.336;2022-09-12T10:19:49;2.90;;;2.42;;
14470;SDS011;7321;50.802;4.336;2022-09-12T10:22:19;4.72;;;2.92;;
14470;SDS011;7321;50.802;4.336;2022-09-12T10:24:49;3.00;;;2.40;;
14470;SDS011;7321;50.802;4.336;2022-09-12T10:27:34;4.65;;;2.55;;
14470;SDS011;7321;50.802;4.336;2022-09-12T10:32:42;4.80;;;2.85;;
14470;SDS011;7321;50.802;4.336;2022-09-12T10:35:15;2.78;;;2.30;;
14470;SDS011;7321;50.802;4.336;2022-09-12T10:40:28;3.00;;;2.72;;
14470;SDS011;7321;50.802;4.336;2022-09-12T10:43:02;2.88;;;2.58;;
14470;SDS011;7321;50.802;4.336;2022-09-12T10:45:41;4.68;;;3.20;;
14470;SDS011;7321;50.802;4.336;2022-09-12T10:50:59;2.70;;;2.25;;
14470;SDS011;7321;50.802;4.336;2022-09-12T10:53:27;4.07;;;2.38;;
14470;SDS011;7321;50.802;4.336;2022-09-12T11:01:46;4.55;;;2.30;;
14470;SDS011;7321;50.802;4.336;2022-09-12T11:25:40;2.95;;;2.58;;
14470;SDS011;7321;50.802;4.336;2022-09-12T11:28:59;2.30;;;2.10;;
14470;SDS011;7321;50.802;4.336;2022-09-12T11:31:39;2.70;;;2.50;;
14470;SDS011;7321;50.802;4.336;2022-09-12T11:45:43;2.08;;;1.92;;
14470;SDS011;7321;50.802;4.336;2022-09-12T11:48:14;4.05;;;2.17;;
14470;SDS011;7321;50.802;4.336;2022-09-12T11:50:51;1.92;;;1.83;;
14470;SDS011;7321;50.802;4.336;2022-09-12T11:53:18;3.08;;;2.20;;
14470;SDS011;7321;50.802;4.336;2022-09-12T11:56:02;3.92;;;2.40;;
14470;SDS011;7321;50.802;4.336;2022-09-12T11:58:33;3.92;;;2.50;;
14470;SDS011;7321;50.802;4.336;2022-09-12T12:01:25;2.38;;;2.10;;
14470;SDS011;7321;50.802;4.336;2022-09-12T12:03:50;3.25;;;2.28;;
14470;SDS011;7321;50.802;4.336;2022-09-12T12:06:38;2.15;;;1.88;;
14470;SDS011;7321;50.802;4.336;2022-09-12T12:09:18;2.20;;;2.00;;
14470;SDS011;7321;50.802;4.336;2022-09-12T12:11:47;1.70;;;1.60;;
14470;SDS011;7321;50.802;4.336;2022-09-12T12:14:18;2.83;;;2.17;;
14470;SDS011;7321;50.802;4.336;2022-09-12T12:16:56;2.95;;;2.00;;
14470;SDS011;7321;50.802;4.336;2022-09-12T12:19:34;4.65;;;2.10;;
14470;SDS011;7321;50.802;4.336;2022-09-12T12:22:04;3.42;;;1.85;;
14470;SDS011;7321;50.802;4.336;2022-09-12T12:24:32;2.90;;;1.80;;
14470;SDS011;7321;50.802;4.336;2022-09-12T12:27:02;1.70;;;1.60;;
14470;SDS011;7321;50.802;4.336;2022-09-12T12:29:37;2.00;;;1.90;;
14470;SDS011;7321;50.802;4.336;2022-09-12T12:34:36;2.30;;;2.10;;
14470;SDS011;7321;50.802;4.336;2022-09-12T12:40:19;3.58;;;1.83;;
14470;SDS011;7321;50.802;4.336;2022-09-12T12:47:43;2.42;;;2.15;;
14470;SDS011;7321;50.802;4.336;2022-09-12T12:52:49;3.35;;;2.53;;
14470;SDS011;7321;50.802;4.336;2022-09-12T12:55:29;3.30;;;2.95;;
14470;SDS011;7321;50.802;4.336;2022-09-12T13:03:40;2.65;;;2.10;;
14470;SDS011;7321;50.802;4.336;2022-09-12T13:09:02;3.42;;;1.70;;
14470;SDS011;7321;50.802;4.336;2022-09-12T13:11:34;2.85;;;2.08;;
14470;SDS011;7321;50.802;4.336;2022-09-12T13:17:53;2.05;;;1.88;;
14470;SDS011;7321;50.802;4.336;2022-09-12T13:20:06;2.47;;;1.98;;
14470;SDS011;7321;50.802;4.336;2022-09-12T13:22:50;2.10;;;1.80;;
14470;SDS011;7321;50.802;4.336;2022-09-12T13:25:24;3.75;;;2.03;;
14470;SDS011;7321;50.802;4.336;2022-09-12T13:30:34;2.83;;;1.42;;
14470;SDS011;7321;50.802;4.336;2022-09-12T13:35:52;2.65;;;1.95;;
14470;SDS011;7321;50.802;4.336;2022-09-12T13:41:21;2.85;;;1.75;;
14470;SDS011;7321;50.802;4.336;2022-09-12T13:44:09;1.55;;;1.42;;
14470;SDS011;7321;50.802;4.336;2022-09-12T13:46:38;3.95;;;1.73;;
14470;SDS011;7321;50.802;4.336;2022-09-12T13:49:07;2.88;;;1.88;;
14470;SDS011;7321;50.802;4.336;2022-09-12T13:51:45;2.60;;;1.65;;
14470;SDS011;7321;50.802;4.336;2022-09-12T13:54:25;1.60;;;1.40;;
14470;SDS011;7321;50.802;4.336;2022-09-12T13:56:51;2.38;;;1.50;;
14470;SDS011;7321;50.802;4.336;2022-09-12T13:59:17;3.47;;;1.92;;
14470;SDS011;7321;50.802;4.336;2022-09-12T14:01:44;2.40;;;1.77;;
14470;SDS011;7321;50.802;4.336;2022-09-12T14:04:15;1.70;;;1.60;;
14470;SDS011;7321;50.802;4.336;2022-09-12T14:07:06;1.75;;;1.45;;
14470;SDS011;7321;50.802;4.336;2022-09-12T14:09:38;1.88;;;1.58;;
14470;SDS011;7321;50.802;4.336;2022-09-12T14:12:22;5.70;;;3.53;;
14470;SDS011;7321;50.802;4.336;2022-09-12T14:14:59;3.08;;;1.75;;
14470;SDS011;7321;50.802;4.336;2022-09-12T14:17:35;2.40;;;1.40;;
14470;SDS011;7321;50.802;4.336;2022-09-12T14:20:07;3.30;;;1.60;;
14470;SDS011;7321;50.802;4.336;2022-09-12T14:22:38;2.25;;;1.50;;
14470;SDS011;7321;50.802;4.336;2022-09-12T14:25:05;5.32;;;1.70;;
14470;SDS011;7321;50.802;4.336;2022-09-12T14:27:40;2.60;;;1.70;;
14470;SDS011;7321;50.802;4.336;2022-09-12T14:30:30;2.22;;;1.70;;
14470;SDS011;7321;50.802;4.336;2022-09-12T14:35:36;3.17;;;1.70;;
14470;SDS011;7321;50.802;4.336;2022-09-12T14:38:07;3.25;;;1.38;;
14470;SDS011;7321;50.802;4.336;2022-09-12T14:40:43;1.60;;;1.50;;
14470;SDS011;7321;50.802;4.336;2022-09-12T14:43:35;3.13;;;1.70;;
14470;SDS011;7321;50.802;4.336;2022-09-12T14:46:24;2.83;;;1.70;;
14470;SDS011;7321;50.802;4.336;2022-09-12T14:48:55;2.45;;;1.80;;
14470;SDS011;7321;50.802;4.336;2022-09-12T14:51:26;3.95;;;1.63;;
14470;SDS011;7321;50.802;4.336;2022-09-12T14:53:57;1.75;;;1.63;;
14470;SDS011;7321;50.802;4.336;2022-09-12T14:56:37;1.55;;;1.45;;
14470;SDS011;7321;50.802;4.336;2022-09-12T15:02:10;1.92;;;1.40;;
14470;SDS011;7321;50.802;4.336;2022-09-12T15:04:45;3.15;;;1.60;;
14470;SDS011;7321;50.802;4.336;2022-09-12T15:09:52;1.85;;;1.60;;
14470;SDS011;7321;50.802;4.336;2022-09-12T15:12:18;1.58;;;1.48;;
14470;SDS011;7321;50.802;4.336;2022-09-12T15:14:44;1.77;;;1.40;;
14470;SDS011;7321;50.802;4.336;2022-09-12T15:17:09;2.70;;;1.70;;
14470;SDS011;7321;50.802;4.336;2022-09-12T15:19:35;1.70;;;1.60;;
14470;SDS011;7321;50.802;4.336;2022-09-12T15:22:01;1.88;;;1.45;;
14470;SDS011;7321;50.802;4.336;2022-09-12T15:24:26;2.25;;;1.80;;
14470;SDS011;7321;50.802;4.336;2022-09-12T15:26:52;3.25;;;1.40;;
14470;SDS011;7321;50.802;4.336;2022-09-12T15:29:18;2.20;;;2.03;;
14470;SDS011;7321;50.802;4.336;2022-09-12T15:31:45;1.92;;;1.52;;
14470;SDS011;7321;50.802;4.336;2022-09-12T15:34:14;1.67;;;1.55;;
14470;SDS011;7321;50.802;4.336;2022-09-12T15:36:39;2.75;;;2.20;;
14470;SDS011;7321;50.802;4.336;2022-09-12T15:39:05;2.35;;;1.52;;
14470;SDS011;7321;50.802;4.336;2022-09-12T15:41:32;2.33;;;1.23;;
14470;SDS011;7321;50.802;4.336;2022-09-12T15:44:05;3.55;;;1.48;;
14470;SDS011;7321;50.802;4.336;2022-09-12T15:46:35;3.17;;;1.83;;
14470;SDS011;7321;50.802;4.336;2022-09-12T15:49:01;1.40;;;1.30;;
14470;SDS011;7321;50.802;4.336;2022-09-12T15:51:26;1.38;;;1.27;;
14470;SDS011;7321;50.802;4.336;2022-09-12T15:53:53;2.53;;;1.70;;
14470;SDS011;7321;50.802;4.336;2022-09-12T15:56:19;1.80;;;1.48;;
14470;SDS011;7321;50.802;4.336;2022-09-12T15:58:46;1.35;;;1.20;;
14470;SDS011;7321;50.802;4.336;2022-09-12T16:01:13;1.70;;;1.60;;
14470;SDS011;7321;50.802;4.336;2022-09-12T16:03:41;1.17;;;1.10;;
14470;SDS011;7321;50.802;4.336;2022-09-12T16:06:07;1.67;;;1.58;;
14470;SDS011;7321;50.802;4.336;2022-09-12T16:08:33;1.50;;;1.40;;
14470;SDS011;7321;50.802;4.336;2022-09-12T16:11:04;2.05;;;1.60;;
14470;SDS011;7321;50.802;4.336;2022-09-12T16:13:36;3.05;;;1.77;;
14470;SDS011;7321;50.802;4.336;2022-09-12T16:16:02;2.67;;;1.42;;
14470;SDS011;7321;50.802;4.336;2022-09-12T16:18:28;2.65;;;1.73;;
14470;SDS011;7321;50.802;4.336;2022-09-12T16:20:57;4.53;;;1.83;;
14470;SDS011;7321;50.802;4.336;2022-09-12T16:23:23;2.65;;;2.45;;
14470;SDS011;7321;50.802;4.336;2022-09-12T16:25:55;3.35;;;2.22;;
14470;SDS011;7321;50.802;4.336;2022-09-12T16:28:22;4.03;;;3.30;;
14470;SDS011;7321;50.802;4.336;2022-09-12T16:30:55;2.10;;;1.90;;
14470;SDS011;7321;50.802;4.336;2022-09-12T16:33:21;2.67;;;2.47;;
14470;SDS011;7321;50.802;4.336;2022-09-12T16:35:59;2.22;;;2.10;;
14470;SDS011;7321;50.802;4.336;2022-09-12T16:38:30;4.20;;;3.80;;
14470;SDS011;7321;50.802;4.336;2022-09-12T16:41:02;9.95;;;7.68;;
14470;SDS011;7321;50.802;4.336;2022-09-12T16:43:29;12.43;;;11.13;;
14470;SDS011;7321;50.802;4.336;2022-09-12T16:46:03;16.08;;;13.20;;
14470;SDS011;7321;50.802;4.336;2022-09-12T16:48:32;20.90;;;16.55;;
14470;SDS011;7321;50.802;4.336;2022-09-12T16:51:00;6.22;;;3.35;;
14470;SDS011;7321;50.802;4.336;2022-09-12T16:53:30;4.40;;;4.00;;
14470;SDS011;7321;50.802;4.336;2022-09-12T16:56:01;3.10;;;2.13;;
14470;SDS011;7321;50.802;4.336;2022-09-12T16:58:30;7.70;;;5.07;;
14470;SDS011;7321;50.802;4.336;2022-09-12T17:01:04;17.05;;;14.13;;
14470;SDS011;7321;50.802;4.336;2022-09-12T17:03:31;10.10;;;9.07;;
14470;SDS011;7321;50.802;4.336;2022-09-12T17:06:15;4.97;;;4.53;;
14470;SDS011;7321;50.802;4.336;2022-09-12T17:08:43;6.18;;;5.15;;
14470;SDS011;7321;50.802;4.336;2022-09-12T17:11:11;8.75;;;7.82;;
14470;SDS011;7321;50.802;4.336;2022-09-12T17:13:39;16.83;;;14.50;;
14470;SDS011;7321;50.802;4.336;2022-09-12T17:16:06;8.00;;;6.38;;
14470;SDS011;7321;50.802;4.336;2022-09-12T17:18:32;15.77;;;13.30;;
14470;SDS011;7321;50.802;4.336;2022-09-12T17:20:58;10.75;;;9.23;;
14470;SDS011;7321;50.802;4.336;2022-09-12T17:23:24;10.15;;;6.80;;
14470;SDS011;7321;50.802;4.336;2022-09-12T17:25:50;6.88;;;5.70;;
14470;SDS011;7321;50.802;4.336;2022-09-12T17:28:16;4.38;;;3.80;;
14470;SDS011;7321;50.802;4.336;2022-09-12T17:30:43;4.43;;;4.03;;
14470;SDS011;7321;50.802;4.336;2022-09-12T17:33:09;6.18;;;4.80;;
14470;SDS011;7321;50.802;4.336;2022-09-12T17:35:35;5.75;;;4.57;;
14470;SDS011;7321;50.802;4.336;2022-09-12T17:38:01;4.95;;;4.25;;
14470;SDS011;7321;50.802;4.336;2022-09-12T17:40:27;6.20;;;3.65;;
14470;SDS011;7321;50.802;4.336;2022-09-12T17:42:56;6.07;;;4.25;;
14470;SDS011;7321;50.802;4.336;2022-09-12T17:45:22;4.75;;;3.50;;
14470;SDS011;7321;50.802;4.336;2022-09-12T17:47:47;33.15;;;29.65;;
14470;SDS011;7321;50.802;4.336;2022-09-12T17:50:14;11.65;;;8.32;;
14470;SDS011;7321;50.802;4.336;2022-09-12T17:52:42;22.13;;;17.83;;
14470;SDS011;7321;50.802;4.336;2022-09-12T17:55:08;43.42;;;38.00;;
14470;SDS011;7321;50.802;4.336;2022-09-12T17:57:34;15.25;;;13.38;;